createdAt,value
2022-10-08T00:02:20.409Z,28.43
2022-10-08T00:04:51.084Z,28.51
2022-10-08T00:07:21.790Z,28.55
2022-10-08T00:09:52.618Z,28.49
2022-10-08T00:12:23.153Z,28.51
2022-10-08T00:14:54.029Z,28.56
2022-10-08T00:17:25.226Z,28.65
2022-10-08T00:19:56.454Z,28.63
2022-10-08T00:22:27.811Z,28.63
2022-10-08T00:27:44.530Z,28.72
2022-10-08T00:30:15.320Z,28.66
2022-10-08T00:32:48.082Z,28.61
2022-10-08T00:35:18.755Z,28.66
2022-10-08T00:37:48.918Z,28.77
2022-10-08T00:43:05.475Z,28.82
2022-10-08T00:51:13.843Z,28.74
2022-10-08T00:53:46.175Z,28.72
2022-10-08T00:56:16.780Z,28.77
2022-10-08T00:58:48.254Z,28.75
2022-10-08T01:01:19.909Z,28.74
2022-10-08T01:03:50.810Z,28.72
2022-10-08T01:06:20.993Z,28.79
2022-10-08T01:09:06.946Z,28.75
2022-10-08T01:11:56.055Z,28.82
2022-10-08T01:14:50.028Z,28.81
2022-10-08T01:17:31.342Z,28.84
2022-10-08T01:23:37.639Z,28.90
2022-10-08T01:26:28.687Z,28.80
2022-10-08T01:29:17.306Z,28.81
2022-10-08T01:32:14.233Z,28.70
2022-10-08T01:34:50.786Z,28.74
2022-10-08T01:37:31.846Z,28.81
2022-10-08T01:40:05.964Z,28.76
2022-10-08T01:45:34.612Z,28.65
2022-10-08T01:51:05.449Z,28.72
2022-10-08T01:53:41.973Z,28.56
2022-10-08T01:56:14.837Z,28.67
2022-10-08T01:58:53.584Z,28.66
2022-10-08T02:04:36.362Z,28.75
2022-10-08T02:07:15.157Z,28.77
2022-10-08T02:09:48.500Z,28.74
2022-10-08T02:15:07.748Z,28.75
2022-10-08T02:17:59.424Z,28.79
2022-10-08T02:20:29.196Z,28.80
2022-10-08T02:23:06.687Z,28.84
2022-10-08T02:25:48.714Z,28.78
2022-10-08T02:28:52.697Z,28.78
2022-10-08T02:31:34.574Z,28.85
2022-10-08T02:34:23.141Z,28.88
2022-10-08T02:37:25.161Z,28.88
2022-10-08T02:39:59.156Z,28.83
2022-10-08T02:42:31.856Z,28.83
2022-10-08T02:50:52.003Z,28.89
2022-10-08T02:53:24.009Z,28.94
2022-10-08T02:56:18.467Z,29.01
2022-10-08T02:58:49.838Z,28.95
2022-10-08T03:01:20.334Z,29.00
2022-10-08T03:03:57.257Z,28.99
2022-10-08T03:06:30.770Z,29.08
2022-10-08T03:09:03.555Z,29.07
2022-10-08T03:11:34.944Z,29.11
2022-10-08T03:14:08.817Z,29.13
2022-10-08T03:16:43.715Z,29.15
2022-10-08T03:19:17.580Z,29.20
2022-10-08T03:22:06.453Z,29.25
2022-10-08T03:24:37.989Z,29.25
2022-10-08T04:09:03.702Z,29.12
2022-10-08T04:14:19.716Z,29.24
2022-10-08T04:16:51.223Z,29.29
2022-10-08T04:19:21.652Z,29.33
2022-10-08T04:21:51.795Z,29.41
2022-10-08T04:24:21.841Z,29.41
2022-10-08T04:26:52.495Z,29.45
2022-10-08T04:29:22.820Z,29.50
2022-10-08T04:31:55.189Z,29.53
2022-10-08T04:34:25.407Z,29.55
2022-10-08T04:36:55.271Z,29.55
2022-10-08T04:42:10.589Z,29.58
2022-10-08T04:44:40.556Z,29.60
2022-10-08T04:49:57.853Z,29.62
2022-10-08T04:52:28.752Z,29.63
2022-10-08T04:57:46.907Z,29.62
2022-10-08T05:00:18.722Z,29.63
2022-10-08T05:02:49.543Z,29.62
2022-10-08T05:10:51.943Z,29.64
2022-10-08T05:13:21.701Z,29.65
2022-10-08T05:15:52.079Z,29.65
2022-10-08T05:21:10.544Z,29.66
2022-10-08T05:26:57.975Z,29.67
2022-10-08T05:29:21.948Z,29.67
2022-10-08T05:31:52.743Z,29.68
2022-10-08T05:34:23.207Z,29.68
2022-10-08T05:36:54.157Z,29.69
2022-10-08T05:42:10.135Z,29.71
2022-10-08T05:44:43.497Z,29.74
2022-10-08T05:47:16.033Z,29.74
2022-10-08T05:49:46.237Z,29.75
2022-10-08T05:52:16.239Z,29.75
2022-10-08T05:54:47.871Z,29.76
2022-10-08T05:57:18.265Z,29.73
2022-10-08T05:59:48.328Z,29.76
2022-10-08T06:02:18.970Z,29.82
2022-10-08T06:04:51.748Z,30.08
2022-10-08T06:07:22.547Z,30.17
2022-10-08T06:09:54.487Z,30.17
2022-10-08T06:12:24.642Z,30.17
2022-10-08T06:14:54.652Z,30.17
2022-10-08T06:17:24.803Z,30.17
2022-10-08T06:19:54.762Z,30.27
2022-10-08T06:22:25.883Z,30.34
2022-10-08T06:27:42.034Z,30.44
2022-10-08T06:30:12.804Z,30.40
2022-10-08T06:32:43.449Z,30.39
2022-10-08T06:35:13.630Z,30.33
2022-10-08T06:37:44.546Z,30.47
2022-10-08T06:40:15.058Z,30.47
2022-10-08T06:42:45.457Z,30.56
2022-10-08T06:45:16.023Z,30.60
2022-10-08T06:47:46.734Z,30.63
2022-10-08T06:53:05.799Z,30.73
2022-10-08T06:55:38.238Z,30.77
2022-10-08T06:58:09.061Z,30.78
2022-10-08T07:00:39.357Z,30.76
2022-10-08T07:03:10.410Z,30.80
2022-10-08T07:05:40.522Z,30.79
2022-10-08T07:08:10.846Z,30.82
2022-10-08T07:13:27.134Z,30.81
2022-10-08T07:16:03.786Z,30.82
2022-10-08T07:18:35.411Z,30.85
2022-10-08T07:21:07.394Z,30.93
2022-10-08T07:23:38.155Z,30.95
2022-10-08T07:26:14.034Z,30.99
2022-10-08T07:28:46.899Z,31.01
2022-10-08T07:31:20.650Z,30.95
2022-10-08T07:33:51.697Z,30.95
2022-10-08T07:36:24.186Z,30.95
2022-10-08T07:41:57.714Z,30.97
2022-10-08T07:47:13.604Z,30.89
2022-10-08T07:49:43.832Z,30.87
2022-10-08T07:52:14.681Z,30.96
2022-10-08T07:54:47.422Z,30.91
2022-10-08T07:57:18.239Z,30.97
2022-10-08T07:59:51.021Z,30.93
2022-10-08T08:02:21.142Z,30.94
2022-10-08T08:04:51.220Z,30.99
2022-10-08T08:07:22.128Z,30.94
2022-10-08T08:09:52.309Z,30.99
2022-10-08T08:12:22.901Z,31.02
2022-10-08T08:14:53.236Z,31.01
2022-10-08T08:17:23.684Z,31.07
2022-10-08T08:20:13.106Z,31.01
2022-10-08T08:22:43.381Z,31.04
2022-10-08T08:25:31.491Z,30.97
2022-10-08T08:28:02.173Z,31.01
2022-10-08T08:33:18.299Z,31.08
2022-10-08T08:35:55.457Z,31.05
2022-10-08T08:38:25.614Z,31.04
2022-10-08T08:40:59.348Z,31.06
2022-10-08T08:43:29.676Z,31.01
2022-10-08T08:46:00.701Z,31.02
2022-10-08T08:48:35.734Z,31.04
2022-10-08T08:51:06.508Z,31.04
2022-10-08T08:53:36.774Z,31.06
2022-10-08T08:56:10.410Z,31.04
2022-10-08T08:58:45.378Z,31.04
2022-10-08T09:01:38.647Z,31.03
2022-10-08T09:07:25.137Z,31.02
2022-10-08T09:09:58.513Z,30.99
2022-10-08T09:12:46.653Z,31.10
2022-10-08T09:15:26.605Z,31.06
2022-10-08T09:20:44.221Z,30.99
2022-10-08T09:23:23.939Z,30.94
2022-10-08T09:26:25.639Z,30.88
2022-10-08T09:31:48.305Z,30.88
2022-10-08T09:34:22.296Z,30.80
2022-10-08T09:37:08.239Z,30.79
2022-10-08T09:45:33.319Z,30.83
2022-10-08T09:51:20.022Z,30.80
2022-10-08T09:53:55.481Z,30.77
2022-10-08T09:56:33.743Z,30.88
2022-10-08T09:59:07.299Z,30.87
2022-10-08T10:01:39.417Z,30.89
2022-10-08T10:04:21.075Z,30.86
2022-10-08T10:06:58.287Z,30.80
2022-10-08T10:09:41.040Z,30.79
2022-10-08T10:12:38.688Z,30.82
2022-10-08T10:15:19.168Z,30.82
2022-10-08T10:18:07.995Z,30.72
2022-10-08T10:23:43.783Z,30.64
2022-10-08T10:26:28.318Z,30.60
2022-10-08T10:29:03.490Z,30.62
2022-10-08T10:31:43.694Z,30.62
2022-10-08T10:34:20.931Z,30.60
2022-10-08T10:37:00.301Z,30.61
2022-10-08T10:39:38.201Z,30.56
2022-10-08T10:42:39.948Z,30.66
2022-10-08T10:45:30.935Z,30.69
2022-10-08T10:48:01.662Z,30.72
2022-10-08T10:51:07.433Z,30.82
2022-10-08T10:54:07.246Z,30.74
2022-10-08T10:56:45.172Z,30.74
2022-10-08T10:59:35.530Z,30.84
2022-10-08T11:02:19.004Z,30.86
2022-10-08T11:05:12.790Z,30.81
2022-10-08T11:07:54.281Z,30.88
2022-10-08T11:13:47.514Z,30.67
2022-10-08T11:22:56.439Z,30.58
2022-10-08T11:25:55.730Z,30.59
2022-10-08T11:28:36.889Z,30.58
2022-10-08T11:31:16.847Z,30.64
2022-10-08T11:33:48.521Z,30.58
2022-10-08T11:39:45.537Z,30.64
2022-10-08T11:42:40.264Z,30.66
2022-10-08T11:45:28.630Z,30.84
2022-10-08T11:50:47.779Z,30.87
2022-10-08T11:53:25.359Z,30.78
2022-10-08T11:56:02.079Z,30.71
2022-10-08T11:58:35.918Z,30.69
2022-10-08T12:01:11.963Z,30.74
2022-10-08T12:06:38.746Z,30.74
2022-10-08T12:09:11.300Z,30.77
2022-10-08T12:14:27.761Z,30.80
2022-10-08T12:20:03.944Z,30.79
2022-10-08T12:28:24.665Z,30.86
2022-10-08T12:31:04.361Z,30.76
2022-10-08T12:33:35.300Z,30.89
2022-10-08T12:36:22.033Z,30.83
2022-10-08T12:39:09.394Z,30.82
2022-10-08T12:42:17.000Z,30.77
2022-10-08T12:45:06.606Z,30.87
2022-10-08T12:50:58.310Z,30.81
2022-10-08T12:56:21.884Z,30.82
2022-10-08T12:58:53.801Z,30.89
2022-10-08T13:01:26.214Z,30.83
2022-10-08T13:04:22.979Z,30.80
2022-10-08T13:06:56.715Z,30.87
2022-10-08T13:09:30.592Z,30.89
2022-10-08T13:14:49.468Z,30.78
2022-10-08T13:17:38.081Z,30.86
2022-10-08T13:22:59.357Z,30.79
2022-10-08T13:28:59.220Z,30.83
2022-10-08T13:31:27.166Z,30.91
2022-10-08T13:33:57.979Z,30.89
2022-10-08T13:36:28.758Z,30.84
2022-10-08T13:41:53.546Z,30.79
2022-10-08T13:44:24.508Z,30.80
2022-10-08T13:46:57.205Z,30.82
2022-10-08T13:49:32.217Z,30.66
2022-10-08T13:52:05.136Z,30.73
2022-10-08T13:54:41.524Z,30.74
2022-10-08T13:57:13.104Z,30.67
2022-10-08T14:05:15.690Z,30.61
2022-10-08T14:07:48.683Z,30.61
2022-10-08T14:10:21.726Z,30.63
2022-10-08T14:12:52.596Z,30.64
2022-10-08T14:15:23.581Z,30.61
2022-10-08T14:17:56.172Z,30.58
2022-10-08T14:26:02.286Z,30.53
2022-10-08T14:31:18.320Z,30.51
2022-10-08T14:33:49.321Z,30.52
2022-10-08T14:36:22.855Z,30.54
2022-10-08T14:41:39.747Z,30.51
2022-10-08T14:46:56.297Z,30.52
2022-10-08T14:49:27.063Z,30.51
2022-10-08T14:51:57.654Z,30.52
2022-10-08T14:54:28.664Z,30.50
2022-10-08T14:56:59.515Z,30.49
2022-10-08T14:59:30.361Z,30.47
2022-10-08T15:02:01.467Z,30.48
2022-10-08T15:10:04.278Z,30.46
2022-10-08T15:12:35.150Z,30.48
2022-10-08T15:17:51.677Z,30.50
2022-10-08T15:20:22.339Z,30.52
2022-10-08T15:25:38.698Z,30.49
2022-10-08T15:28:09.454Z,30.49
2022-10-08T15:30:40.232Z,30.50
2022-10-08T15:33:10.929Z,30.49
2022-10-08T15:38:27.070Z,30.44
2022-10-08T15:41:05.096Z,30.52
2022-10-08T15:46:23.904Z,30.59
2022-10-08T15:57:16.816Z,30.56
2022-10-08T15:59:48.017Z,30.51
2022-10-08T16:02:18.882Z,30.58
2022-10-08T16:04:50.966Z,30.58
2022-10-08T16:07:22.322Z,30.56
2022-10-08T16:14:24.787Z,30.53
2022-10-08T16:16:56.602Z,30.49
2022-10-08T16:19:29.250Z,30.47
2022-10-08T16:22:01.661Z,30.47
2022-10-08T16:24:32.745Z,30.46
2022-10-08T16:27:03.581Z,30.45
2022-10-08T16:29:34.418Z,30.43
2022-10-08T16:32:05.236Z,30.44
2022-10-08T16:34:35.969Z,30.43
2022-10-08T16:37:07.778Z,30.40
2022-10-08T16:39:38.525Z,30.40
2022-10-08T16:42:09.514Z,30.38
2022-10-08T16:47:25.934Z,30.34
2022-10-08T16:49:57.991Z,30.33
2022-10-08T16:52:28.711Z,30.31
2022-10-08T16:54:59.483Z,30.28
2022-10-08T16:57:31.131Z,30.29
2022-10-08T17:00:02.792Z,30.26
2022-10-08T17:02:33.857Z,30.26
2022-10-08T17:05:04.702Z,30.23
2022-10-08T17:07:35.717Z,30.19
2022-10-08T17:10:06.619Z,30.18
2022-10-08T17:15:23.126Z,30.17
2022-10-08T17:23:25.516Z,30.15
2022-10-08T17:25:59.610Z,30.18
2022-10-08T17:28:33.187Z,30.16
2022-10-08T17:31:05.636Z,30.12
2022-10-08T17:36:25.405Z,30.12
2022-10-08T17:38:59.204Z,30.16
2022-10-08T17:44:17.031Z,30.15
2022-10-08T17:46:50.079Z,30.11
2022-10-08T17:52:08.687Z,30.12
2022-10-08T17:57:25.212Z,30.10
2022-10-08T18:08:12.546Z,30.08
2022-10-08T18:10:43.274Z,30.09
2022-10-08T18:13:14.021Z,30.10
2022-10-08T18:15:44.947Z,30.12
2022-10-08T18:18:16.018Z,30.10
2022-10-08T18:20:56.756Z,30.08
2022-10-08T18:23:27.731Z,30.11
2022-10-08T18:28:59.758Z,30.07
2022-10-08T18:31:34.127Z,30.05
2022-10-08T18:34:07.732Z,30.08
2022-10-08T18:36:41.063Z,30.07
2022-10-08T18:39:17.315Z,30.05
2022-10-08T18:41:50.784Z,30.02
2022-10-08T18:44:27.221Z,30.01
2022-10-08T18:47:00.680Z,30.03
2022-10-08T18:49:36.422Z,30.04
2022-10-08T18:52:07.291Z,30.01
2022-10-08T18:57:23.854Z,30.00
2022-10-08T18:59:54.673Z,30.02
2022-10-08T19:05:11.225Z,30.04
2022-10-08T19:07:42.034Z,30.04
2022-10-08T19:10:14.007Z,30.06
2022-10-08T19:12:45.125Z,30.06
2022-10-08T19:15:16.522Z,30.05
2022-10-08T19:20:33.158Z,30.06
2022-10-08T19:23:04.337Z,30.07
2022-10-08T19:25:36.336Z,30.08
2022-10-08T19:28:08.474Z,30.07
2022-10-08T19:30:39.214Z,30.07
2022-10-08T19:33:09.854Z,30.07
2022-10-08T19:35:44.406Z,30.03
2022-10-08T19:38:15.150Z,30.04
2022-10-08T19:40:45.980Z,30.04
2022-10-08T19:43:16.718Z,30.04
2022-10-08T19:48:34.311Z,30.02
2022-10-08T19:51:13.336Z,30.02
2022-10-08T19:53:44.218Z,30.02
2022-10-08T19:56:16.810Z,30.01
2022-10-08T19:58:48.949Z,30.02
2022-10-08T20:04:16.659Z,30.02
2022-10-08T20:09:33.582Z,30.03
2022-10-08T20:14:51.626Z,30.06
2022-10-08T20:17:22.462Z,30.03
2022-10-08T20:20:01.517Z,30.07
2022-10-08T20:22:40.248Z,30.03
2022-10-08T20:25:11.230Z,30.04
2022-10-08T20:27:41.996Z,30.03
2022-10-08T20:30:14.589Z,30.00
2022-10-08T20:32:45.710Z,30.01
2022-10-08T20:35:16.280Z,30.01
2022-10-08T20:37:47.088Z,30.01
2022-10-08T20:40:17.866Z,30.00
2022-10-08T20:48:21.652Z,29.99
2022-10-08T20:50:52.281Z,29.99
2022-10-08T20:53:23.155Z,29.99
2022-10-08T20:55:53.878Z,30.01
2022-10-08T20:58:25.023Z,30.00
2022-10-08T21:00:57.530Z,29.99
2022-10-08T21:03:28.630Z,30.01
2022-10-08T21:05:59.686Z,29.99
2022-10-08T21:08:30.818Z,30.00
2022-10-08T21:11:07.160Z,29.98
2022-10-08T21:13:39.421Z,29.99
2022-10-08T21:16:13.533Z,29.99
2022-10-08T21:21:31.876Z,29.98
2022-10-08T21:26:49.236Z,29.96
2022-10-08T21:32:05.720Z,29.97
2022-10-08T21:34:36.540Z,29.98
2022-10-08T21:37:10.384Z,29.96
2022-10-08T21:45:15.140Z,29.96
2022-10-08T21:47:45.891Z,29.96
2022-10-08T21:50:16.714Z,29.96
2022-10-08T21:52:47.775Z,29.96
2022-10-08T21:55:19.003Z,29.95
2022-10-08T21:57:49.802Z,29.95
2022-10-08T22:00:20.691Z,29.92
2022-10-08T22:02:51.762Z,29.93
2022-10-08T22:05:25.489Z,29.93
2022-10-08T22:08:00.030Z,29.93
2022-10-08T22:10:30.820Z,29.96
2022-10-08T22:13:02.035Z,29.93
2022-10-08T22:18:18.382Z,29.93
2022-10-08T22:20:51.295Z,29.92
2022-10-08T22:26:12.462Z,29.92
2022-10-08T22:28:44.007Z,29.93
2022-10-08T22:34:02.850Z,29.92
2022-10-08T22:39:21.717Z,29.88
2022-10-08T22:41:52.481Z,29.88
2022-10-08T22:44:23.307Z,29.88
2022-10-08T22:46:54.168Z,29.88
2022-10-08T22:49:25.144Z,29.88
2022-10-08T22:51:56.219Z,29.87
2022-10-08T22:54:27.133Z,29.88
2022-10-08T23:02:28.872Z,29.89
2022-10-08T23:04:59.487Z,29.85
2022-10-08T23:07:30.856Z,29.86
2022-10-08T23:10:01.127Z,29.86
2022-10-08T23:12:33.789Z,29.86
2022-10-08T23:15:04.581Z,29.84
2022-10-08T23:17:35.442Z,29.82
2022-10-08T23:20:06.955Z,29.84
2022-10-08T23:22:37.819Z,29.84
2022-10-08T23:27:54.727Z,29.85
2022-10-08T23:30:42.229Z,29.84
2022-10-08T23:35:59.800Z,29.86
2022-10-08T23:41:17.753Z,29.84
2022-10-08T23:43:50.364Z,29.85
2022-10-08T23:46:25.525Z,29.86
2022-10-08T23:51:42.650Z,29.78
2022-10-08T23:54:13.703Z,29.69
2022-10-08T23:56:44.408Z,29.62
2022-10-08T23:59:15.549Z,29.60
